createdAt,value
2022-08-28T00:01:37.252Z,45.00
2022-08-28T00:04:03.771Z,45.10
2022-08-28T00:06:30.293Z,45.00
2022-08-28T00:08:56.814Z,45.00
2022-08-28T00:11:23.330Z,44.90
2022-08-28T00:13:49.855Z,44.90
2022-08-28T00:16:16.444Z,44.90
2022-08-28T00:18:43.010Z,44.80
2022-08-28T00:21:09.542Z,44.80
2022-08-28T00:23:42.680Z,44.80
2022-08-28T00:26:09.740Z,44.70
2022-08-28T00:28:36.258Z,44.80
2022-08-28T00:31:02.817Z,44.90
2022-08-28T00:33:29.403Z,44.90
2022-08-28T00:35:55.937Z,44.90
2022-08-28T00:38:22.434Z,44.80
2022-08-28T00:40:49.009Z,44.70
2022-08-28T00:43:16.043Z,44.80
2022-08-28T00:45:42.581Z,44.70
2022-08-28T00:48:09.211Z,44.60
2022-08-28T00:50:35.845Z,44.50
2022-08-28T00:53:02.367Z,44.60
2022-08-28T00:55:28.885Z,44.70
2022-08-28T00:57:55.410Z,44.70
2022-08-28T01:00:21.934Z,44.70
2022-08-28T01:02:48.489Z,44.60
2022-08-28T01:05:15.049Z,44.70
2022-08-28T01:07:41.574Z,44.80
2022-08-28T01:10:08.092Z,44.80
2022-08-28T01:12:34.608Z,44.60
2022-08-28T01:15:01.132Z,44.50
2022-08-28T01:17:27.646Z,44.60
2022-08-28T01:19:54.171Z,44.50
2022-08-28T01:22:20.715Z,44.50
2022-08-28T01:24:47.226Z,44.60
2022-08-28T01:27:13.737Z,44.60
2022-08-28T01:29:40.239Z,44.60
2022-08-28T01:32:06.759Z,44.60
2022-08-28T01:34:35.202Z,44.60
2022-08-28T01:37:03.700Z,44.70
2022-08-28T01:39:30.338Z,44.60
2022-08-28T01:41:56.851Z,44.50
2022-08-28T01:44:23.352Z,44.60
2022-08-28T01:46:49.893Z,44.50
2022-08-28T01:49:16.475Z,44.50
2022-08-28T01:51:43.045Z,44.40
2022-08-28T01:54:09.855Z,44.40
2022-08-28T01:56:36.466Z,44.40
2022-08-28T01:59:02.971Z,44.40
2022-08-28T02:01:29.512Z,44.50
2022-08-28T02:03:56.121Z,44.50
2022-08-28T02:06:22.698Z,44.40
2022-08-28T02:08:49.224Z,44.40
2022-08-28T02:11:15.819Z,44.40
2022-08-28T02:13:42.344Z,44.40
2022-08-28T02:16:10.446Z,44.50
2022-08-28T02:18:37.065Z,44.40
2022-08-28T02:21:03.604Z,44.30
2022-08-28T02:23:30.120Z,44.40
2022-08-28T02:25:56.646Z,44.40
2022-08-28T02:28:23.158Z,44.40
2022-08-28T02:30:49.716Z,44.40
2022-08-28T02:33:16.288Z,44.30
2022-08-28T02:35:42.823Z,44.30
2022-08-28T02:38:09.406Z,44.30
2022-08-28T02:40:36.055Z,44.30
2022-08-28T02:43:02.612Z,44.40
2022-08-28T02:45:29.130Z,44.40
2022-08-28T02:47:55.655Z,44.30
2022-08-28T02:50:25.125Z,44.20
2022-08-28T02:52:51.629Z,44.30
2022-08-28T02:55:18.169Z,44.20
2022-08-28T02:57:44.696Z,44.30
2022-08-28T03:00:11.227Z,44.20
2022-08-28T03:02:37.822Z,44.20
2022-08-28T03:05:04.408Z,44.30
2022-08-28T03:07:30.933Z,44.20
2022-08-28T03:09:57.455Z,44.30
2022-08-28T03:12:23.981Z,44.40
2022-08-28T03:14:55.218Z,44.20
2022-08-28T03:17:21.738Z,44.20
2022-08-28T03:19:48.254Z,44.10
2022-08-28T03:22:14.770Z,44.10
2022-08-28T03:24:41.295Z,44.10
2022-08-28T03:27:07.798Z,44.20
2022-08-28T03:29:34.324Z,44.20
2022-08-28T03:32:00.863Z,44.20
2022-08-28T03:34:27.398Z,44.20
2022-08-28T03:36:53.927Z,44.20
2022-08-28T03:39:20.426Z,44.20
2022-08-28T03:41:46.959Z,44.10
2022-08-28T03:44:13.459Z,44.10
2022-08-28T03:46:39.973Z,44.10
2022-08-28T03:49:06.497Z,44.10
2022-08-28T03:51:33.017Z,44.10
2022-08-28T03:53:59.579Z,44.00
2022-08-28T03:56:26.097Z,44.00
2022-08-28T03:58:52.608Z,43.90
2022-08-28T04:01:19.194Z,44.00
2022-08-28T04:03:45.871Z,43.90
2022-08-28T04:06:12.439Z,44.00
2022-08-28T04:08:38.961Z,43.90
2022-08-28T04:11:05.464Z,44.10
2022-08-28T04:13:31.982Z,44.20
2022-08-28T04:15:58.499Z,44.20
2022-08-28T04:18:25.026Z,44.20
2022-08-28T04:20:51.646Z,44.30
2022-08-28T04:23:18.181Z,44.30
2022-08-28T04:25:44.699Z,44.40
2022-08-28T04:28:11.345Z,44.50
2022-08-28T04:30:37.897Z,44.40
2022-08-28T04:33:04.398Z,44.40
2022-08-28T04:35:30.921Z,44.40
2022-08-28T04:37:59.010Z,44.50
2022-08-28T04:40:25.763Z,44.50
2022-08-28T04:42:52.339Z,44.40
2022-08-28T04:45:18.840Z,44.40
2022-08-28T04:47:45.365Z,44.50
2022-08-28T04:50:11.865Z,44.50
2022-08-28T04:52:38.406Z,44.50
2022-08-28T04:55:04.938Z,44.50
2022-08-28T04:57:36.138Z,44.50
2022-08-28T05:00:02.979Z,44.40
2022-08-28T05:02:29.565Z,44.50
2022-08-28T05:04:56.139Z,44.50
2022-08-28T05:07:22.659Z,44.40
2022-08-28T05:09:49.183Z,44.40
2022-08-28T05:12:15.712Z,44.40
2022-08-28T05:14:42.243Z,44.40
2022-08-28T05:17:08.763Z,44.40
2022-08-28T05:19:35.292Z,44.40
2022-08-28T05:22:01.809Z,44.50
2022-08-28T05:24:28.353Z,44.50
2022-08-28T05:26:54.859Z,44.50
2022-08-28T05:29:21.380Z,44.50
2022-08-28T05:31:50.049Z,44.40
2022-08-28T05:34:16.592Z,44.50
2022-08-28T05:36:43.118Z,44.50
2022-08-28T05:39:09.636Z,44.50
2022-08-28T05:41:36.152Z,44.50
2022-08-28T05:44:02.691Z,44.40
2022-08-28T05:46:29.205Z,44.40
2022-08-28T05:48:55.752Z,44.40
2022-08-28T05:51:22.507Z,44.30
2022-08-28T05:53:49.079Z,44.40
2022-08-28T05:56:15.591Z,44.40
2022-08-28T05:58:42.123Z,44.40
2022-08-28T06:01:08.626Z,44.40
2022-08-28T06:03:35.162Z,44.30
2022-08-28T06:06:01.692Z,44.30
2022-08-28T06:08:28.223Z,44.30
2022-08-28T06:10:54.735Z,44.30
2022-08-28T06:13:21.238Z,44.30
2022-08-28T06:15:47.795Z,44.30
2022-08-28T06:18:14.544Z,44.30
2022-08-28T06:20:41.230Z,44.30
2022-08-28T06:23:07.757Z,44.40
2022-08-28T06:25:34.287Z,44.30
2022-08-28T06:28:00.810Z,44.30
2022-08-28T06:30:27.338Z,44.30
2022-08-28T06:32:56.704Z,44.30
2022-08-28T06:35:23.224Z,44.40
2022-08-28T06:37:49.740Z,44.40
2022-08-28T06:40:16.292Z,44.40
2022-08-28T06:42:42.858Z,44.40
2022-08-28T06:45:09.385Z,44.40
2022-08-28T06:47:35.906Z,44.30
2022-08-28T06:50:02.463Z,44.40
2022-08-28T06:52:28.982Z,44.40
2022-08-28T06:54:56.049Z,44.30
2022-08-28T06:57:22.629Z,44.40
2022-08-28T06:59:49.152Z,44.20
2022-08-28T07:02:19.531Z,44.30
2022-08-28T07:04:46.966Z,44.20
2022-08-28T07:07:18.718Z,44.30
2022-08-28T07:09:59.244Z,44.30
2022-08-28T07:12:25.747Z,44.40
2022-08-28T07:14:52.270Z,44.30
2022-08-28T07:17:18.778Z,44.30
2022-08-28T07:19:45.310Z,44.30
2022-08-28T07:22:11.818Z,44.30
2022-08-28T07:24:38.366Z,44.30
2022-08-28T07:27:04.883Z,44.20
2022-08-28T07:29:31.423Z,44.30
2022-08-28T07:31:57.944Z,44.30
2022-08-28T07:34:27.137Z,44.30
2022-08-28T07:36:53.992Z,44.20
2022-08-28T07:39:20.540Z,44.30
2022-08-28T07:41:47.063Z,44.30
2022-08-28T07:44:13.607Z,44.30
2022-08-28T07:46:40.122Z,44.30
2022-08-28T07:49:06.665Z,44.30
2022-08-28T07:51:33.183Z,44.30
2022-08-28T07:53:59.715Z,44.30
2022-08-28T07:56:26.254Z,44.30
2022-08-28T07:58:52.771Z,44.20
2022-08-28T08:01:19.331Z,44.30
2022-08-28T08:03:45.926Z,44.30
2022-08-28T08:06:13.387Z,44.20
2022-08-28T08:08:39.900Z,44.20
2022-08-28T08:11:06.424Z,44.00
2022-08-28T08:13:34.752Z,44.00
2022-08-28T08:16:01.498Z,44.10
2022-08-28T08:18:28.039Z,43.90
2022-08-28T08:20:55.360Z,44.00
2022-08-28T08:23:25.385Z,43.90
2022-08-28T08:25:51.964Z,43.70
2022-08-28T08:28:18.486Z,43.60
2022-08-28T08:30:45.042Z,43.50
2022-08-28T08:33:11.567Z,43.70
2022-08-28T08:35:38.111Z,43.60
2022-08-28T08:38:04.610Z,43.40
2022-08-28T08:40:31.142Z,43.50
2022-08-28T08:42:57.684Z,43.40
2022-08-28T08:45:24.204Z,43.30
2022-08-28T08:47:50.707Z,43.20
2022-08-28T08:50:17.243Z,43.20
2022-08-28T08:52:43.795Z,43.10
2022-08-28T08:55:13.402Z,43.30
2022-08-28T08:57:41.656Z,43.30
2022-08-28T09:00:10.230Z,43.10
2022-08-28T09:02:40.138Z,43.00
2022-08-28T09:05:06.665Z,43.00
2022-08-28T09:07:33.196Z,43.00
2022-08-28T09:09:59.715Z,43.00
2022-08-28T09:12:26.250Z,42.90
2022-08-28T09:14:52.783Z,43.10
2022-08-28T09:17:19.317Z,43.20
2022-08-28T09:19:45.830Z,42.90
2022-08-28T09:22:13.430Z,42.80
2022-08-28T09:24:39.956Z,42.80
2022-08-28T09:27:11.056Z,42.30
2022-08-28T09:29:43.590Z,42.80
2022-08-28T09:32:10.132Z,43.00
2022-08-28T09:34:38.973Z,42.80
2022-08-28T09:37:05.726Z,43.10
2022-08-28T09:39:37.550Z,43.00
2022-08-28T09:42:04.066Z,43.00
2022-08-28T09:44:30.566Z,43.00
2022-08-28T09:46:57.068Z,43.00
2022-08-28T09:49:25.399Z,42.90
2022-08-28T09:51:52.843Z,42.90
2022-08-28T09:54:19.361Z,42.90
2022-08-28T09:56:45.871Z,43.00
2022-08-28T09:59:12.395Z,43.00
2022-08-28T10:01:38.943Z,42.90
2022-08-28T10:04:05.562Z,43.10
2022-08-28T10:06:33.370Z,43.10
2022-08-28T10:08:59.890Z,43.00
2022-08-28T10:11:26.582Z,43.10
2022-08-28T10:13:55.149Z,43.10
2022-08-28T10:16:21.759Z,43.10
2022-08-28T10:18:48.299Z,43.10
2022-08-28T10:21:14.816Z,43.10
2022-08-28T10:23:41.342Z,43.10
2022-08-28T10:26:07.866Z,43.10
2022-08-28T10:28:34.464Z,43.00
2022-08-28T10:31:01.098Z,43.10
2022-08-28T10:33:27.666Z,43.10
2022-08-28T10:35:55.485Z,43.10
2022-08-28T10:38:25.555Z,43.00
2022-08-28T10:40:52.092Z,43.00
2022-08-28T10:43:18.656Z,43.10
2022-08-28T10:45:45.380Z,43.00
2022-08-28T10:48:13.557Z,43.00
2022-08-28T10:50:40.151Z,43.00
2022-08-28T10:53:06.661Z,43.00
2022-08-28T10:55:33.195Z,43.10
2022-08-28T10:57:59.727Z,43.10
2022-08-28T11:00:27.347Z,43.10
2022-08-28T11:02:53.928Z,43.10
2022-08-28T11:05:20.511Z,43.10
2022-08-28T11:07:47.016Z,43.10
2022-08-28T11:10:14.496Z,43.10
2022-08-28T11:12:41.023Z,43.10
2022-08-28T11:15:07.536Z,43.20
2022-08-28T11:17:35.177Z,43.20
2022-08-28T11:20:01.742Z,43.20
2022-08-28T11:22:28.275Z,43.20
2022-08-28T11:25:02.363Z,43.20
2022-08-28T11:27:29.959Z,43.20
2022-08-28T11:30:01.649Z,43.10
2022-08-28T11:32:28.204Z,43.10
2022-08-28T11:34:54.729Z,43.20
2022-08-28T11:37:21.297Z,43.20
2022-08-28T11:39:47.836Z,43.10
2022-08-28T11:42:14.368Z,43.20
2022-08-28T11:44:40.896Z,43.20
2022-08-28T11:47:07.422Z,43.20
2022-08-28T11:49:33.918Z,43.20
2022-08-28T11:52:00.450Z,43.30
2022-08-28T11:54:26.960Z,43.20
2022-08-28T11:56:53.484Z,43.30
2022-08-28T11:59:19.986Z,43.20
2022-08-28T12:01:48.211Z,43.30
2022-08-28T12:04:14.769Z,43.20
2022-08-28T12:06:43.546Z,43.20
2022-08-28T12:09:10.059Z,43.20
2022-08-28T12:11:36.576Z,43.20
2022-08-28T12:14:03.085Z,43.20
2022-08-28T12:16:29.684Z,43.20
2022-08-28T12:18:56.258Z,43.20
2022-08-28T12:21:25.579Z,43.10
2022-08-28T12:23:52.090Z,43.10
2022-08-28T12:26:21.892Z,43.10
2022-08-28T12:28:48.416Z,43.20
2022-08-28T12:31:14.993Z,43.20
2022-08-28T12:33:41.553Z,43.20
2022-08-28T12:36:08.064Z,43.10
2022-08-28T12:38:34.588Z,43.20
2022-08-28T12:41:01.119Z,43.10
2022-08-28T12:43:27.652Z,43.10
2022-08-28T12:45:54.242Z,43.10
2022-08-28T12:48:20.781Z,43.10
2022-08-28T12:50:47.290Z,43.10
2022-08-28T12:53:13.880Z,43.10
2022-08-28T12:55:40.501Z,43.00
2022-08-28T12:58:07.016Z,43.00
2022-08-28T13:00:39.501Z,43.00
2022-08-28T13:03:06.071Z,43.00
2022-08-28T13:05:32.625Z,43.00
2022-08-28T13:07:59.122Z,42.90
2022-08-28T13:10:25.653Z,42.90
2022-08-28T13:12:56.115Z,42.90
2022-08-28T13:15:24.384Z,42.80
2022-08-28T13:17:51.081Z,42.90
2022-08-28T13:20:17.594Z,42.90
2022-08-28T13:22:50.987Z,42.90
2022-08-28T13:25:17.587Z,42.90
2022-08-28T13:27:44.101Z,42.90
2022-08-28T13:30:10.628Z,42.90
2022-08-28T13:32:37.151Z,42.90
2022-08-28T13:35:03.705Z,42.90
2022-08-28T13:37:30.208Z,42.90
2022-08-28T13:39:56.792Z,42.80
2022-08-28T13:42:23.343Z,42.90
2022-08-28T13:44:49.880Z,42.90
2022-08-28T13:47:16.389Z,42.90
2022-08-28T13:49:42.983Z,43.00
2022-08-28T13:52:09.567Z,42.90
2022-08-28T13:54:36.102Z,42.80
2022-08-28T13:57:02.620Z,42.80
2022-08-28T13:59:29.132Z,42.80
2022-08-28T14:01:55.738Z,42.90
2022-08-28T14:04:22.359Z,42.80
2022-08-28T14:06:48.898Z,42.90
2022-08-28T14:09:17.535Z,42.90
2022-08-28T14:11:49.665Z,42.90
2022-08-28T14:14:16.200Z,42.90
2022-08-28T14:16:42.793Z,42.80
2022-08-28T14:19:09.399Z,42.90
2022-08-28T14:21:35.910Z,42.90
2022-08-28T14:24:02.415Z,43.00
2022-08-28T14:26:28.954Z,42.90
2022-08-28T14:28:55.495Z,42.90
2022-08-28T14:31:26.420Z,42.70
2022-08-28T14:33:53.316Z,42.80
2022-08-28T14:36:19.845Z,42.70
2022-08-28T14:38:46.374Z,42.30
2022-08-28T14:41:12.897Z,42.60
2022-08-28T14:43:39.413Z,42.60
2022-08-28T14:46:09.685Z,42.60
2022-08-28T14:48:38.115Z,42.60
2022-08-28T14:51:04.630Z,42.60
2022-08-28T14:53:37.704Z,42.50
2022-08-28T14:56:04.231Z,42.40
2022-08-28T14:58:30.755Z,42.30
2022-08-28T15:00:57.322Z,42.30
2022-08-28T15:03:23.889Z,42.40
2022-08-28T15:05:50.433Z,42.10
2022-08-28T15:08:19.868Z,42.20
2022-08-28T15:10:46.409Z,42.10
2022-08-28T15:13:13.139Z,42.10
2022-08-28T15:15:41.902Z,42.30
2022-08-28T15:18:08.421Z,41.90
2022-08-28T15:20:34.963Z,42.30
2022-08-28T15:23:01.478Z,42.10
2022-08-28T15:25:27.992Z,42.30
2022-08-28T15:27:54.528Z,42.20
2022-08-28T15:30:21.049Z,42.30
2022-08-28T15:32:47.574Z,42.10
2022-08-28T15:35:14.093Z,42.30
2022-08-28T15:37:40.647Z,42.20
2022-08-28T15:40:07.247Z,42.30
2022-08-28T15:42:33.786Z,42.30
2022-08-28T15:45:00.307Z,42.20
2022-08-28T15:47:26.844Z,42.20
2022-08-28T15:49:53.374Z,42.30
2022-08-28T15:52:19.906Z,42.30
2022-08-28T15:54:46.405Z,42.30
2022-08-28T15:57:12.933Z,42.20
2022-08-28T15:59:49.060Z,42.30
2022-08-28T16:02:16.796Z,42.30
2022-08-28T16:04:43.341Z,42.30
2022-08-28T16:07:09.865Z,42.30
2022-08-28T16:09:36.375Z,42.30
2022-08-28T16:12:02.921Z,42.30
2022-08-28T16:14:29.447Z,42.40
2022-08-28T16:16:55.975Z,42.50
2022-08-28T16:19:22.485Z,42.40
2022-08-28T16:21:49.020Z,42.50
2022-08-28T16:24:15.529Z,42.40
2022-08-28T16:26:42.046Z,42.40
2022-08-28T16:29:08.564Z,42.50
2022-08-28T16:31:35.492Z,42.30
2022-08-28T16:34:02.058Z,42.20
2022-08-28T16:36:28.587Z,42.30
2022-08-28T16:39:00.305Z,41.90
2022-08-28T16:41:30.438Z,41.70
2022-08-28T16:43:58.517Z,41.50
2022-08-28T16:46:25.044Z,41.40
2022-08-28T16:48:51.562Z,41.50
2022-08-28T16:51:18.085Z,41.30
2022-08-28T16:53:44.592Z,41.40
2022-08-28T16:56:11.116Z,41.30
2022-08-28T16:58:37.624Z,41.10
2022-08-28T17:01:04.165Z,41.50
2022-08-28T17:03:32.385Z,41.20
2022-08-28T17:05:58.905Z,41.60
2022-08-28T17:08:25.435Z,41.70
2022-08-28T17:10:51.972Z,41.10
2022-08-28T17:13:18.490Z,41.20
2022-08-28T17:15:45.131Z,41.40
2022-08-28T17:18:11.788Z,41.40
2022-08-28T17:20:38.454Z,41.30
2022-08-28T17:23:04.971Z,41.30
2022-08-28T17:25:31.517Z,41.10
2022-08-28T17:27:58.040Z,41.10
2022-08-28T17:30:24.586Z,41.00
2022-08-28T17:32:51.102Z,41.00
2022-08-28T17:35:17.677Z,40.90
2022-08-28T17:37:44.211Z,41.00
2022-08-28T17:40:10.743Z,41.10
2022-08-28T17:42:37.264Z,41.00
2022-08-28T17:45:04.550Z,41.00
2022-08-28T17:47:31.223Z,41.00
2022-08-28T17:49:57.738Z,40.90
2022-08-28T17:52:24.252Z,40.90
2022-08-28T17:55:02.760Z,40.80
2022-08-28T17:57:29.282Z,40.80
2022-08-28T17:59:55.807Z,40.80
2022-08-28T18:02:22.330Z,40.80
2022-08-28T18:04:48.888Z,40.80
2022-08-28T18:07:15.472Z,40.80
2022-08-28T18:09:42.006Z,40.90
2022-08-28T18:12:12.734Z,40.90
2022-08-28T18:14:39.414Z,40.80
2022-08-28T18:17:05.946Z,40.70
2022-08-28T18:19:35.650Z,40.70
2022-08-28T18:22:02.177Z,40.70
2022-08-28T18:24:28.695Z,40.70
2022-08-28T18:26:58.509Z,40.60
2022-08-28T18:29:25.011Z,40.70
2022-08-28T18:31:51.930Z,40.80
2022-08-28T18:34:18.454Z,40.60
2022-08-28T18:36:49.865Z,40.50
2022-08-28T18:39:16.633Z,40.70
2022-08-28T18:41:56.241Z,40.50
2022-08-28T18:44:24.407Z,40.60
2022-08-28T18:46:51.063Z,40.50
2022-08-28T18:49:17.628Z,40.40
2022-08-28T18:51:44.154Z,40.40
2022-08-28T18:54:13.973Z,40.50
2022-08-28T18:56:42.996Z,40.40
2022-08-28T18:59:09.607Z,40.40
2022-08-28T19:01:36.257Z,40.40
2022-08-28T19:04:02.826Z,40.40
2022-08-28T19:06:29.354Z,40.50
2022-08-28T19:08:55.876Z,40.40
2022-08-28T19:11:22.401Z,40.50
2022-08-28T19:13:49.132Z,40.40
2022-08-28T19:16:15.696Z,40.40
2022-08-28T19:18:43.855Z,40.30
2022-08-28T19:21:10.374Z,40.30
2022-08-28T19:23:41.656Z,40.40
2022-08-28T19:26:18.318Z,40.30
2022-08-28T19:28:44.828Z,40.20
2022-08-28T19:31:11.383Z,40.20
2022-08-28T19:33:37.947Z,40.20
2022-08-28T19:36:04.470Z,40.10
2022-08-28T19:38:31.030Z,40.20
2022-08-28T19:40:57.652Z,40.20
2022-08-28T19:43:24.172Z,40.20
2022-08-28T19:45:57.648Z,40.10
2022-08-28T19:48:24.209Z,40.20
2022-08-28T19:50:50.721Z,40.10
2022-08-28T19:53:25.933Z,40.10
2022-08-28T19:55:52.454Z,40.10
2022-08-28T19:58:18.969Z,40.10
2022-08-28T20:00:45.484Z,40.10
2022-08-28T20:03:12.004Z,40.00
2022-08-28T20:05:38.531Z,40.00
2022-08-28T20:08:05.048Z,39.90
2022-08-28T20:10:31.930Z,39.90
2022-08-28T20:12:59.066Z,39.90
2022-08-28T20:15:25.585Z,39.80
2022-08-28T20:17:52.118Z,39.80
2022-08-28T20:20:18.667Z,39.80
2022-08-28T20:22:45.181Z,39.80
2022-08-28T20:25:14.867Z,39.80
2022-08-28T20:27:41.433Z,39.80
2022-08-28T20:30:10.809Z,39.80
2022-08-28T20:32:40.889Z,39.70
2022-08-28T20:35:08.280Z,39.70
2022-08-28T20:37:34.810Z,39.70
2022-08-28T20:40:11.669Z,39.80
2022-08-28T20:42:38.208Z,39.70
2022-08-28T20:45:04.726Z,39.80
2022-08-28T20:47:31.259Z,39.70
2022-08-28T20:49:57.783Z,39.70
2022-08-28T20:52:24.299Z,39.80
2022-08-28T20:54:50.819Z,39.70
2022-08-28T20:57:17.343Z,39.80
2022-08-28T20:59:43.853Z,39.80
2022-08-28T21:02:10.405Z,39.70
2022-08-28T21:04:37.027Z,39.70
2022-08-28T21:07:05.288Z,39.70
2022-08-28T21:09:41.045Z,39.80
2022-08-28T21:12:18.325Z,39.70
2022-08-28T21:14:44.830Z,39.80
2022-08-28T21:17:18.103Z,39.80
2022-08-28T21:19:55.700Z,39.80
2022-08-28T21:22:22.337Z,39.70
2022-08-28T21:24:48.853Z,39.70
2022-08-28T21:27:15.404Z,39.70
2022-08-28T21:29:45.096Z,39.70
2022-08-28T21:32:11.610Z,39.80
2022-08-28T21:34:44.028Z,39.70
2022-08-28T21:37:10.536Z,39.70
2022-08-28T21:39:37.038Z,39.70
2022-08-28T21:42:03.550Z,39.90
2022-08-28T21:44:30.054Z,39.90
2022-08-28T21:46:56.579Z,39.80
2022-08-28T21:49:23.102Z,39.70
2022-08-28T21:51:49.655Z,39.80
2022-08-28T21:54:16.164Z,39.70
2022-08-28T21:56:42.683Z,39.80
2022-08-28T21:59:09.219Z,39.70
2022-08-28T22:01:35.835Z,39.70
2022-08-28T22:04:02.399Z,39.70
2022-08-28T22:06:28.918Z,39.70
2022-08-28T22:08:55.767Z,39.80
2022-08-28T22:11:25.066Z,39.80
2022-08-28T22:13:51.766Z,39.70
2022-08-28T22:16:18.333Z,39.80
2022-08-28T22:18:44.867Z,39.80
2022-08-28T22:21:11.373Z,39.90
2022-08-28T22:23:37.883Z,39.90
2022-08-28T22:26:04.386Z,39.80
2022-08-28T22:28:30.916Z,39.80
2022-08-28T22:31:02.124Z,39.80
2022-08-28T22:33:28.803Z,39.70
2022-08-28T22:35:55.313Z,39.80
2022-08-28T22:38:21.850Z,39.80
2022-08-28T22:40:48.446Z,39.80
2022-08-28T22:43:14.999Z,39.80
2022-08-28T22:45:41.524Z,39.70
2022-08-28T22:48:08.074Z,39.60
2022-08-28T22:50:34.599Z,39.60
2022-08-28T22:53:01.131Z,39.70
2022-08-28T22:55:27.643Z,39.70
2022-08-28T22:57:54.178Z,39.70
2022-08-28T23:00:20.694Z,39.70
2022-08-28T23:02:47.283Z,39.70
2022-08-28T23:05:13.838Z,39.80
2022-08-28T23:07:40.373Z,39.70
2022-08-28T23:10:08.104Z,39.80
2022-08-28T23:12:34.620Z,39.80
2022-08-28T23:15:01.155Z,39.80
2022-08-28T23:17:27.650Z,39.80
2022-08-28T23:19:55.028Z,39.70
2022-08-28T23:22:21.543Z,39.60
2022-08-28T23:24:48.069Z,39.70
2022-08-28T23:27:35.307Z,39.70
2022-08-28T23:30:01.064Z,39.70
2022-08-28T23:32:27.592Z,39.70
2022-08-28T23:34:54.938Z,39.70
2022-08-28T23:37:21.530Z,39.60
2022-08-28T23:39:49.117Z,39.60
2022-08-28T23:42:15.645Z,39.60
2022-08-28T23:44:42.167Z,39.70
2022-08-28T23:47:08.694Z,39.70
2022-08-28T23:49:35.212Z,39.80
2022-08-28T23:52:09.378Z,39.70
2022-08-28T23:54:36.615Z,39.70
2022-08-28T23:57:03.914Z,39.70
2022-08-28T23:59:31.865Z,39.80
